Main page
METAR-TAF:

METAR-TAF

Airports :

Cox Field

Paris, Texas, United States

latitude: 33-38N, longitude: 095-27W, elevation: 548 ft

Current weather observation

The report was made 50 minutes ago, at 00:56 UTC
Wind 16 mph from the Southeast
Temperature 88°F
Humidity 59%
Pressure 29.83 in. Hg
Visibility: 10 miles
Clear sky

METAR: KPRX 180056Z AUTO 14014KT 10SM CLR 31/22 A2983 RMK AO2 SLP096 T03060222

Time: 20:46 (01:46 UTC)


TAF: missing

Weather observations and forecasts of more than 4000 airports (METAR and TAF reports).

The available stations are represented by yellow and red dots on the map.

Hover mouse over dot to see the name of the station.

Then click to see weather observations and forecasts.

To change the map : click on the green buttons with a black cross to zoom in, on the green button with a dash to zoom out, or on the green arrows for adjacent maps.


METAR-TAF: